createdAt,value
2017-07-09T00:02:29.883Z,18.92
2017-07-09T00:12:29.843Z,18.74
2017-07-09T00:22:29.900Z,18.61
2017-07-09T00:32:29.875Z,18.55
2017-07-09T00:42:29.820Z,18.42
2017-07-09T00:52:29.907Z,18.19
2017-07-09T01:02:29.863Z,18.06
2017-07-09T01:12:29.948Z,17.89
2017-07-09T01:22:29.863Z,17.89
2017-07-09T01:32:30.873Z,17.82
2017-07-09T01:42:29.905Z,17.95
2017-07-09T01:52:29.868Z,17.84
2017-07-09T02:02:29.958Z,17.79
2017-07-09T02:12:29.901Z,17.81
2017-07-09T02:22:29.838Z,17.66
2017-07-09T02:32:29.912Z,17.62
2017-07-09T02:42:29.850Z,17.66
2017-07-09T02:52:29.931Z,17.3
2017-07-09T03:02:29.892Z,17.14
2017-07-09T03:12:29.853Z,16.85
2017-07-09T03:22:30.829Z,16.5
2017-07-09T03:32:31.945Z,16.56
2017-07-09T03:42:33.450Z,16.73
2017-07-09T03:52:31.840Z,16.89
2017-07-09T04:02:29.874Z,16.78
2017-07-09T04:12:33.944Z,16.81
2017-07-09T04:22:31.893Z,16.92
2017-07-09T04:32:29.855Z,17.07
2017-07-09T04:42:30.926Z,17.06
2017-07-09T04:52:29.877Z,17.13
2017-07-09T05:02:35.706Z,17.33
2017-07-09T05:12:29.886Z,17.82
2017-07-09T05:22:30.879Z,18.55
2017-07-09T05:32:29.933Z,18.83
2017-07-09T05:42:29.989Z,19.33
2017-07-09T05:52:29.960Z,20.03
2017-07-09T06:02:30.029Z,19.84
2017-07-09T06:12:30.023Z,19.6
2017-07-09T06:22:29.928Z,19.18
2017-07-09T06:32:30.001Z,19.97
2017-07-09T06:42:29.945Z,24.27
2017-07-09T06:52:29.934Z,23.61
2017-07-09T07:02:29.987Z,23.67
2017-07-09T07:12:29.990Z,23.52
2017-07-09T07:22:29.986Z,24.75
2017-07-09T07:32:29.972Z,27.16
2017-07-09T07:42:30.048Z,28.47
2017-07-09T07:52:30.019Z,29.66
2017-07-09T08:02:29.965Z,31.06
2017-07-09T08:12:30.047Z,31.92
2017-07-09T08:22:29.961Z,30.53
2017-07-09T08:32:30.062Z,29.31
2017-07-09T08:42:29.991Z,28.31
2017-07-09T08:52:30.065Z,28.29
2017-07-09T09:02:30.003Z,30.33
2017-07-09T09:12:30.584Z,31.01
2017-07-09T09:22:30.092Z,29.72
2017-07-09T09:32:30.009Z,28.7
2017-07-09T09:42:30.077Z,27.43
2017-07-09T09:52:30.048Z,27.46
2017-07-09T10:02:29.994Z,27.21
2017-07-09T10:12:30.067Z,27.66
2017-07-09T10:22:31.119Z,28.23
2017-07-09T10:32:30.339Z,28.69
2017-07-09T10:42:30.543Z,28.14
2017-07-09T10:52:30.115Z,28.41
2017-07-09T11:02:30.244Z,28.5
2017-07-09T11:12:31.038Z,27.96
2017-07-09T11:22:30.263Z,27.69
2017-07-09T11:32:30.152Z,27.99
2017-07-09T11:42:30.984Z,28.16
2017-07-09T11:52:32.516Z,28.51
2017-07-09T12:02:30.998Z,28.19
2017-07-09T12:12:31.419Z,28.68
2017-07-09T12:22:39.153Z,28.16
2017-07-09T12:32:47.465Z,28.62
2017-07-09T12:42:47.013Z,29.66
2017-07-09T12:52:32.274Z,29.08
2017-07-09T13:02:31.071Z,29.49
2017-07-09T13:12:38.878Z,28.73
2017-07-09T13:22:32.992Z,29.16
2017-07-09T13:32:33.834Z,28.72
2017-07-09T13:42:31.478Z,28.53
2017-07-09T13:52:32.787Z,29.13
2017-07-09T14:02:33.774Z,28.6
2017-07-09T14:12:31.850Z,28.5
2017-07-09T14:22:34.499Z,28.22
2017-07-09T14:32:43.376Z,28.03
2017-07-09T14:43:08.472Z,27.8
2017-07-09T14:52:36.970Z,27.26
2017-07-09T15:03:49.124Z,27.66
2017-07-09T15:12:49.317Z,27.77
2017-07-09T15:22:30.160Z,27.86
2017-07-09T15:32:47.605Z,28.13
2017-07-09T15:42:32.646Z,28.11
2017-07-09T15:52:53.197Z,27.82
2017-07-09T16:02:57.326Z,27.71
2017-07-09T16:12:47.648Z,27.39
2017-07-09T16:22:32.951Z,27.71
2017-07-09T16:32:49.174Z,27.41
2017-07-09T16:42:31.319Z,27.11
2017-07-09T17:02:53.047Z,27.31
2017-07-09T17:12:32.116Z,27.24
2017-07-09T17:22:30.312Z,27.14
2017-07-09T17:32:52.228Z,26.8
2017-07-09T17:42:34.831Z,26.64
2017-07-09T17:53:00.900Z,26.37
2017-07-09T18:03:15.792Z,25.86
2017-07-09T18:13:41.024Z,25.52
2017-07-09T18:22:30.983Z,25.15
2017-07-09T18:32:30.938Z,24.75
2017-07-09T18:42:36.068Z,24.42
2017-07-09T18:52:47.227Z,23.95
2017-07-09T19:02:45.818Z,23.61
2017-07-09T19:12:33.018Z,23.32
2017-07-09T19:32:34.864Z,22.68
2017-07-09T19:52:51.061Z,22.28
2017-07-09T20:02:40.850Z,22.01
2017-07-09T20:13:07.598Z,21.79
2017-07-09T20:22:39.149Z,21.74
2017-07-09T20:42:31.114Z,21.29
2017-07-09T20:53:36.946Z,20.99
2017-07-09T21:22:43.461Z,20.69
2017-07-09T21:32:43.309Z,20.72
2017-07-09T21:42:59.845Z,20.71
2017-07-09T21:52:43.334Z,20.61
2017-07-09T22:02:43.324Z,20.5
2017-07-09T22:12:43.423Z,20.28
2017-07-09T22:22:43.322Z,19.97
2017-07-09T22:32:43.399Z,19.84
2017-07-09T22:42:43.307Z,19.57
2017-07-09T22:52:43.317Z,19.48
2017-07-09T23:02:43.383Z,19.36
2017-07-09T23:12:43.368Z,19.18
2017-07-09T23:22:43.365Z,19.13
2017-07-09T23:32:43.393Z,18.94
2017-07-09T23:42:43.378Z,18.73
2017-07-09T23:52:43.372Z,18.54
